Terminal Aerodrome Forecast
Issued by NWS

Home | Current Version | Previous Version | Text Only | Print | Product List | Glossary On
Versions: 1 2 3 4 5 6 7 8 9 10 11 12 13 14 15 16 17 18 19 20 21 22 23 24 25 26 27
000
FTUS43 KPAH 121700
TAFOWB
TAF
KOWB 121740Z 1218/1318 22008KT P6SM SCT050 BKN100
      TEMPO 1218/1220 2SM -TSRA BR BKN035CB
     FM130000 21005KT P6SM BKN250
     FM131500 23012KT P6SM SCT050 BKN100=

USA.gov is the U.S. government's official web portal to all federal, state and local government web resources and services.